createdAt,value
2023-06-09T00:03:04.606Z,4.25
2023-06-09T00:07:06.876Z,3.50
2023-06-09T00:11:10.448Z,4.47
2023-06-09T00:15:12.427Z,3.70
2023-06-09T00:19:14.613Z,4.18
2023-06-09T00:23:16.234Z,3.60
2023-06-09T00:27:17.734Z,3.90
2023-06-09T00:31:19.395Z,4.95
2023-06-09T00:35:21.184Z,3.80
2023-06-09T00:39:24.003Z,4.15
2023-06-09T00:43:25.562Z,4.43
2023-06-09T00:47:27.892Z,4.28
2023-06-09T00:51:30.981Z,3.70
2023-06-09T00:55:34.629Z,3.80
2023-06-09T00:59:37.111Z,3.70
2023-06-09T01:03:39.273Z,4.10
2023-06-09T01:07:56.632Z,3.50
2023-06-09T01:12:07.069Z,3.63
2023-06-09T01:16:23.553Z,3.40
2023-06-09T01:21:13.925Z,3.70
2023-06-09T01:25:36.870Z,3.38
2023-06-09T01:29:41.931Z,4.13
2023-06-09T01:33:45.679Z,3.97
2023-06-09T01:37:47.244Z,4.20
2023-06-09T01:41:48.746Z,3.58
2023-06-09T01:45:50.763Z,4.35
2023-06-09T01:50:06.117Z,4.22
2023-06-09T01:54:11.818Z,4.10
2023-06-09T01:58:23.807Z,4.53
2023-06-09T02:02:31.666Z,3.78
2023-06-09T02:06:35.037Z,4.22
2023-06-09T02:10:38.024Z,3.70
2023-06-09T02:14:40.709Z,3.72
2023-06-09T02:18:44.989Z,3.75
2023-06-09T02:22:46.619Z,4.28
2023-06-09T02:26:51.321Z,3.78
2023-06-09T02:30:53.116Z,3.63
2023-06-09T02:34:54.689Z,4.03
2023-06-09T02:38:56.240Z,4.05
2023-06-09T02:42:57.805Z,4.60
2023-06-09T02:47:00.765Z,4.70
2023-06-09T02:51:02.889Z,4.30
2023-06-09T02:55:05.090Z,4.20
2023-06-09T02:59:06.763Z,5.20
2023-06-09T03:03:09.216Z,4.68
2023-06-09T03:07:14.531Z,5.22
2023-06-09T03:11:16.087Z,4.82
2023-06-09T03:15:18.004Z,5.60
2023-06-09T03:19:19.636Z,5.45
2023-06-09T03:23:22.461Z,5.68
2023-06-09T03:27:24.000Z,5.90
2023-06-09T03:31:25.831Z,6.15
2023-06-09T03:35:27.685Z,5.53
2023-06-09T03:39:29.170Z,5.55
2023-06-09T03:43:30.932Z,6.53
2023-06-09T03:47:32.485Z,5.40
2023-06-09T03:51:34.066Z,5.60
2023-06-09T03:55:35.863Z,5.60
2023-06-09T03:59:37.447Z,5.60
2023-06-09T04:03:39.511Z,5.38
2023-06-09T04:07:41.632Z,6.18
2023-06-09T04:11:43.518Z,6.80
2023-06-09T04:15:45.039Z,5.32
2023-06-09T04:19:46.535Z,5.50
2023-06-09T04:23:48.070Z,5.22
2023-06-09T04:27:49.589Z,4.97
2023-06-09T04:32:00.121Z,4.90
2023-06-09T04:36:04.913Z,5.13
2023-06-09T04:40:09.855Z,5.32
2023-06-09T04:44:11.396Z,4.88
2023-06-09T04:48:13.965Z,5.68
2023-06-09T04:52:18.599Z,5.50
2023-06-09T04:56:20.730Z,5.47
2023-06-09T05:00:23.317Z,4.90
2023-06-09T05:04:25.145Z,4.93
2023-06-09T05:08:26.761Z,4.50
2023-06-09T05:12:28.556Z,4.90
2023-06-09T05:16:30.307Z,4.22
2023-06-09T05:20:32.502Z,4.18
2023-06-09T05:24:34.028Z,3.78
2023-06-09T05:28:35.632Z,4.18
2023-06-09T05:32:37.293Z,3.90
2023-06-09T05:36:38.919Z,3.47
2023-06-09T05:40:40.391Z,3.85
2023-06-09T05:44:42.023Z,3.83
2023-06-09T05:48:43.494Z,4.03
2023-06-09T05:52:45.277Z,3.25
2023-06-09T05:56:49.791Z,3.80
2023-06-09T06:00:51.497Z,4.05
2023-06-09T06:04:52.976Z,3.30
2023-06-09T06:08:54.433Z,3.08
2023-06-09T06:12:59.204Z,3.10
2023-06-09T06:17:00.732Z,3.38
2023-06-09T06:21:02.216Z,3.45
2023-06-09T06:25:04.342Z,2.85
2023-06-09T06:29:06.360Z,3.00
2023-06-09T06:33:09.097Z,3.00
2023-06-09T06:37:11.108Z,2.80
2023-06-09T06:41:12.600Z,3.08
2023-06-09T06:45:14.145Z,2.67
2023-06-09T06:49:16.092Z,3.15
2023-06-09T06:53:17.844Z,2.60
2023-06-09T06:57:22.089Z,2.92
2023-06-09T07:01:27.011Z,3.15
2023-06-09T07:05:28.797Z,2.50
2023-06-09T07:09:30.275Z,2.90
2023-06-09T07:13:31.826Z,3.00
2023-06-09T07:17:33.536Z,2.28
2023-06-09T07:21:35.156Z,2.50
2023-06-09T07:25:37.017Z,3.20
2023-06-09T07:29:38.504Z,3.17
2023-06-09T07:33:41.758Z,2.40
2023-06-09T07:37:46.809Z,3.00
2023-06-09T07:41:48.437Z,2.88
2023-06-09T07:45:50.084Z,3.20
2023-06-09T07:49:51.646Z,3.55
2023-06-09T07:53:53.629Z,2.70
2023-06-09T07:57:56.446Z,3.17
2023-06-09T08:01:58.026Z,3.10
2023-06-09T08:05:59.624Z,2.60
2023-06-09T08:10:04.111Z,3.05
2023-06-09T08:14:08.328Z,3.17
2023-06-09T08:18:15.746Z,2.92
2023-06-09T08:22:17.308Z,3.17
2023-06-09T08:26:19.250Z,3.10
2023-06-09T08:30:20.734Z,5.45
2023-06-09T08:34:22.268Z,3.28
2023-06-09T08:38:23.908Z,3.22
2023-06-09T08:42:27.052Z,3.25
2023-06-09T08:46:33.623Z,2.90
2023-06-09T08:50:42.210Z,3.17
2023-06-09T08:54:45.782Z,3.15
2023-06-09T08:58:48.890Z,4.30
2023-06-09T09:02:50.681Z,3.55
2023-06-09T09:06:54.268Z,3.00
2023-06-09T09:10:55.866Z,2.83
2023-06-09T09:15:00.406Z,3.28
2023-06-09T09:19:03.360Z,2.88
2023-06-09T09:23:07.139Z,3.10
2023-06-09T09:27:24.082Z,3.30
2023-06-09T09:31:33.913Z,3.00
2023-06-09T09:35:45.653Z,3.42
2023-06-09T09:39:51.931Z,2.88
2023-06-09T09:43:59.810Z,3.13
2023-06-09T09:48:10.346Z,3.50
2023-06-09T09:52:16.097Z,3.47
2023-06-09T09:56:25.307Z,3.50
2023-06-09T10:00:31.501Z,3.50
2023-06-09T10:04:34.569Z,3.28
2023-06-09T10:08:36.703Z,3.20
2023-06-09T10:12:39.727Z,3.15
2023-06-09T10:16:42.505Z,2.85
2023-06-09T10:20:45.657Z,3.15
2023-06-09T10:24:51.674Z,3.40
2023-06-09T10:28:53.181Z,2.90
2023-06-09T10:33:00.205Z,3.50
2023-06-09T10:37:02.029Z,3.35
2023-06-09T10:41:14.310Z,3.35
2023-06-09T10:45:20.051Z,3.70
2023-06-09T10:49:27.890Z,3.20
2023-06-09T10:53:29.479Z,3.03
2023-06-09T10:57:41.323Z,3.25
2023-06-09T11:02:01.689Z,3.30
2023-06-09T11:06:03.400Z,3.83
2023-06-09T11:10:04.896Z,4.03
2023-06-09T11:14:06.442Z,3.30
2023-06-09T11:18:18.206Z,3.10
2023-06-09T11:22:19.907Z,2.80
2023-06-09T11:26:25.454Z,3.15
2023-06-09T11:30:28.933Z,2.88
2023-06-09T11:34:51.209Z,3.03
2023-06-09T11:38:53.099Z,3.67
2023-06-09T11:42:57.890Z,3.00
2023-06-09T11:46:59.544Z,3.38
2023-06-09T11:51:01.834Z,3.53
2023-06-09T11:55:05.364Z,3.55
2023-06-09T11:59:08.232Z,3.45
2023-06-09T12:03:11.791Z,3.50
2023-06-09T12:07:18.534Z,3.15
2023-06-09T12:11:20.543Z,2.80
2023-06-09T12:15:24.694Z,3.13
2023-06-09T12:19:26.476Z,3.22
2023-06-09T12:23:28.949Z,3.35
2023-06-09T12:27:30.802Z,3.83
2023-06-09T12:31:32.389Z,3.35
2023-06-09T12:35:41.808Z,3.15
2023-06-09T12:39:43.642Z,3.30
2023-06-09T12:43:53.365Z,3.78
2023-06-09T12:47:55.260Z,3.10
2023-06-09T12:51:58.092Z,3.30
2023-06-09T12:55:59.663Z,3.17
2023-06-09T13:00:19.884Z,3.35
2023-06-09T13:04:23.586Z,3.40
2023-06-09T13:08:25.433Z,3.65
2023-06-09T13:12:26.985Z,3.30
2023-06-09T13:16:28.552Z,3.47
2023-06-09T13:20:30.347Z,3.83
2023-06-09T13:24:31.821Z,4.45
2023-06-09T13:28:33.477Z,3.03
2023-06-09T13:32:36.523Z,3.33
2023-06-09T13:36:38.246Z,3.75
2023-06-09T13:40:43.623Z,4.90
2023-06-09T13:44:45.506Z,3.78
2023-06-09T13:48:47.084Z,3.33
2023-06-09T13:52:48.745Z,3.20
2023-06-09T13:56:51.017Z,3.80
2023-06-09T14:00:53.154Z,3.45
2023-06-09T14:04:55.107Z,3.40
2023-06-09T14:08:57.017Z,3.20
2023-06-09T14:12:59.168Z,3.20
2023-06-09T14:17:01.734Z,3.40
2023-06-09T14:21:04.346Z,3.20
2023-06-09T14:25:06.758Z,3.20
2023-06-09T14:29:08.503Z,3.35
2023-06-09T14:33:10.218Z,3.50
2023-06-09T14:37:11.812Z,3.70
2023-06-09T14:41:15.933Z,3.08
2023-06-09T14:45:22.069Z,3.67
2023-06-09T14:49:23.659Z,3.22
2023-06-09T14:53:25.219Z,3.47
2023-06-09T14:57:26.761Z,3.22
2023-06-09T15:01:28.304Z,3.42
2023-06-09T15:05:31.422Z,3.33
2023-06-09T15:09:32.960Z,3.80
2023-06-09T15:13:34.482Z,3.35
2023-06-09T15:17:37.740Z,3.55
2023-06-09T15:21:39.342Z,4.13
2023-06-09T15:25:48.680Z,3.63
2023-06-09T15:29:54.721Z,3.35
2023-06-09T15:33:57.052Z,3.35
2023-06-09T15:38:02.395Z,3.22
2023-06-09T15:42:04.244Z,3.47
2023-06-09T15:46:05.784Z,3.38
2023-06-09T15:50:07.535Z,3.58
2023-06-09T15:54:09.092Z,3.80
2023-06-09T15:58:10.678Z,3.40
2023-06-09T16:02:12.424Z,3.10
2023-06-09T16:06:14.054Z,3.10
2023-06-09T16:10:15.760Z,3.33
2023-06-09T16:14:17.341Z,3.13
2023-06-09T16:18:22.738Z,3.25
2023-06-09T16:22:28.483Z,3.55
2023-06-09T16:26:29.984Z,3.53
2023-06-09T16:30:32.112Z,3.95
2023-06-09T16:34:34.139Z,3.05
2023-06-09T16:38:37.899Z,3.53
2023-06-09T16:42:39.420Z,3.40
2023-06-09T16:46:47.738Z,2.70
2023-06-09T16:50:55.012Z,3.63
2023-06-09T16:54:59.707Z,2.90
2023-06-09T16:59:03.353Z,2.67
2023-06-09T17:03:05.092Z,3.15
2023-06-09T17:07:06.860Z,3.38
2023-06-09T17:11:09.394Z,2.88
2023-06-09T17:15:11.856Z,2.92
2023-06-09T17:19:13.569Z,3.03
2023-06-09T17:23:15.168Z,2.70
2023-06-09T17:27:16.991Z,5.53
2023-06-09T17:31:21.302Z,4.10
2023-06-09T17:35:22.834Z,3.88
2023-06-09T17:39:24.608Z,3.65
2023-06-09T17:43:26.830Z,3.58
2023-06-09T17:47:31.793Z,2.75
2023-06-09T17:51:35.384Z,3.63
2023-06-09T17:55:37.020Z,3.67
2023-06-09T17:59:38.616Z,2.97
2023-06-09T18:03:40.113Z,4.07
2023-06-09T18:07:41.770Z,3.55
2023-06-09T18:11:43.284Z,3.60
2023-06-09T18:15:45.578Z,3.30
2023-06-09T18:19:47.660Z,3.25
2023-06-09T18:23:50.234Z,5.93
2023-06-09T18:27:51.864Z,2.95
2023-06-09T18:31:54.082Z,3.65
2023-06-09T18:36:01.576Z,3.38
2023-06-09T18:40:03.491Z,3.78
2023-06-09T18:44:16.423Z,3.05
2023-06-09T18:48:18.527Z,2.80
2023-06-09T18:52:20.804Z,3.00
2023-06-09T18:56:22.604Z,3.05
2023-06-09T19:00:24.310Z,2.90
2023-06-09T19:04:25.819Z,3.25
2023-06-09T19:08:27.337Z,2.78
2023-06-09T19:12:31.446Z,4.13
2023-06-09T19:16:36.877Z,3.88
2023-06-09T19:20:39.602Z,3.08
2023-06-09T19:24:44.145Z,3.28
2023-06-09T19:28:46.064Z,2.92
2023-06-09T19:32:48.630Z,3.63
2023-06-09T19:36:51.849Z,3.35
2023-06-09T19:40:53.557Z,3.47
2023-06-09T19:44:55.176Z,3.65
2023-06-09T19:49:01.130Z,3.58
2023-06-09T19:53:02.710Z,3.17
2023-06-09T19:57:04.852Z,3.35
2023-06-09T20:01:06.453Z,3.58
2023-06-09T20:05:08.732Z,3.10
2023-06-09T20:09:12.026Z,3.28
2023-06-09T20:13:13.618Z,3.33
2023-06-09T20:17:16.576Z,2.83
2023-06-09T20:21:18.951Z,3.30
2023-06-09T20:25:21.130Z,2.90
2023-06-09T20:29:22.613Z,3.30
2023-06-09T20:33:26.910Z,3.60
2023-06-09T20:37:28.387Z,3.60
2023-06-09T20:41:29.910Z,3.67
2023-06-09T20:45:36.022Z,3.33
2023-06-09T20:49:37.617Z,3.42
2023-06-09T20:53:39.126Z,3.45
2023-06-09T20:57:42.156Z,3.42
2023-06-09T21:01:47.531Z,3.38
2023-06-09T21:05:50.416Z,3.05
2023-06-09T21:09:51.968Z,3.80
2023-06-09T21:13:56.373Z,3.88
2023-06-09T21:17:57.919Z,5.07
2023-06-09T21:21:59.430Z,3.20
2023-06-09T21:26:01.027Z,4.03
2023-06-09T21:30:06.875Z,3.97
2023-06-09T21:34:08.416Z,3.75
2023-06-09T21:38:09.956Z,3.95
2023-06-09T21:42:13.286Z,3.53
2023-06-09T21:46:15.490Z,4.18
2023-06-09T21:50:17.035Z,4.75
2023-06-09T21:54:18.708Z,3.47
2023-06-09T21:58:20.406Z,4.00
2023-06-09T22:02:22.101Z,3.50
2023-06-09T22:06:23.582Z,4.43
2023-06-09T22:10:26.249Z,4.38
2023-06-09T22:14:27.880Z,4.03
2023-06-09T22:18:29.580Z,3.95
2023-06-09T22:22:31.508Z,4.50
2023-06-09T22:26:46.269Z,3.97
2023-06-09T22:30:54.687Z,3.97
2023-06-09T22:34:56.574Z,4.22
2023-06-09T22:38:58.673Z,3.50
2023-06-09T22:43:00.173Z,4.45
2023-06-09T22:47:04.569Z,4.13
2023-06-09T22:51:06.418Z,5.38
2023-06-09T22:55:10.868Z,4.57
2023-06-09T22:59:12.596Z,4.20
2023-06-09T23:03:14.132Z,4.13
2023-06-09T23:07:15.896Z,4.45
2023-06-09T23:11:18.949Z,4.53
2023-06-09T23:15:21.893Z,4.97
2023-06-09T23:19:26.292Z,4.88
2023-06-09T23:23:33.054Z,3.72
2023-06-09T23:27:37.152Z,5.25
2023-06-09T23:31:38.725Z,4.22
2023-06-09T23:35:40.580Z,4.28
2023-06-09T23:39:42.422Z,4.40
2023-06-09T23:43:44.201Z,4.07
2023-06-09T23:47:45.716Z,4.10
2023-06-09T23:51:47.284Z,5.18
2023-06-09T23:55:49.800Z,3.67
2023-06-09T23:59:51.520Z,3.88
